Time;durP1;ratioP1;P1;durP2;ratioP2;P2;SDS_P1;SDS_P2;PMS_P1;PMS_P2;Temp;Humidity;BMP_temperature;BMP_pressure;BME280_temperature;BME280_humidity;BME280_pressure;Samples;Min_cycle;Max_cycle;Signal;HPM_P1;HPM_P2
2022/10/20 00:00:16;;;;;;;6.07;5.57;;;;;;;10.32;100.00;101355.03;6043614;23;20026;-71
2022/10/20 00:02:42;;;;;;;6.57;6.07;;;;;;;10.41;100.00;101342.47;6073896;23;20507;-71
2022/10/20 00:05:09;;;;;;;5.68;5.28;;;;;;;9.97;100.00;101260.22;6033585;23;20466;-70
2022/10/20 00:07:35;;;;;;;6.25;5.68;;;;;;;10.55;100.00;101327.84;6050376;23;20640;-70
2022/10/20 00:10:02;;;;;;;7.90;7.22;;;;;;;10.63;100.00;101322.28;6080556;23;20017;-70
2022/10/20 00:12:28;;;;;;;10.10;6.32;;;;;;;10.66;100.00;101324.75;6079782;23;20018;-72
2022/10/20 00:14:55;;;;;;;5.85;5.50;;;;;;;10.72;100.00;101334.13;6040202;23;20385;-70
2022/10/20 00:17:21;;;;;;;5.93;5.47;;;;;;;10.54;100.00;101284.16;6046170;23;20022;-71
2022/10/20 00:19:48;;;;;;;5.82;5.32;;;;;;;10.40;100.00;101249.75;6043304;23;20035;-70
2022/10/20 00:22:14;;;;;;;5.13;4.82;;;;;;;10.26;100.00;101259.94;6049868;23;20021;-70
2022/10/20 00:24:41;;;;;;;6.90;5.28;;;;;;;10.63;100.00;101295.19;6083580;23;20006;-70
2022/10/20 00:27:08;;;;;;;5.80;5.40;;;;;;;10.60;100.00;101297.91;6055316;23;20030;-73
2022/10/20 00:29:34;;;;;;;5.72;5.32;;;;;;;10.35;100.00;101265.69;6077592;23;20033;-72
2022/10/20 00:32:01;;;;;;;5.68;5.18;;;;;;;10.47;100.00;101285.31;6068592;23;20026;-71
2022/10/20 00:34:27;;;;;;;6.35;5.95;;;;;;;10.20;100.00;101263.66;6069949;23;20045;-72
2022/10/20 00:36:53;;;;;;;6.40;5.78;;;;;;;10.39;100.00;101308.41;6047431;23;20043;-73
2022/10/20 00:39:20;;;;;;;6.07;5.60;;;;;;;10.34;100.00;101305.09;6078093;23;20611;-72
2022/10/20 00:41:46;;;;;;;5.90;5.40;;;;;;;10.45;100.00;101288.94;6023156;23;20402;-71
2022/10/20 00:44:49;;;;;;;5.88;5.47;;;;;;;10.47;100.00;101263.47;6080771;23;20036;-72
2022/10/20 00:47:19;;;;;;;5.63;5.28;;;;;;;10.49;100.00;101262.50;6026032;23;20022;-70
2022/10/20 00:49:48;;;;;;;5.88;5.47;;;;;;;10.13;100.00;101207.16;6060779;23;20103;-72
2022/10/20 00:52:19;;;;;;;6.43;5.85;;;;;;;10.42;100.00;101262.81;6045103;23;20022;-72
2022/10/20 00:54:46;;;;;;;7.07;5.43;;;;;;;10.44;100.00;101268.84;6079731;23;20038;-72
2022/10/20 00:57:12;;;;;;;5.60;5.25;;;;;;;10.27;100.00;101245.94;6051350;23;20074;-72
2022/10/20 00:59:39;;;;;;;5.80;5.40;;;;;;;10.35;100.00;101252.59;6079069;23;20108;-72
2022/10/20 01:02:08;;;;;;;5.88;5.47;;;;;;;10.04;100.00;101207.53;6084099;23;20080;-71
2022/10/20 01:04:36;;;;;;;6.55;6.05;;;;;;;10.37;100.00;101261.25;6026965;23;20665;-73
2022/10/20 01:07:03;;;;;;;7.45;5.60;;;;;;;10.12;100.00;101227.31;6076131;23;20014;-71
2022/10/20 01:09:30;;;;;;;6.18;5.65;;;;;;;9.90;100.00;101201.13;6075496;23;20014;-72
2022/10/20 01:12:21;;;;;;;5.82;5.43;;;;;;;9.18;100.00;101123.66;6078306;23;20534;-71
2022/10/20 01:15:06;;;;;;;5.68;5.18;;;;;;;8.93;100.00;101049.59;6077928;23;20022;-73
2022/10/20 01:18:01;;;;;;;5.68;5.28;;;;;;;10.24;100.00;101241.66;6083867;23;20028;-71
2022/10/20 01:21:03;;;;;;;7.13;6.50;;;;;;;10.18;100.00;101253.28;6078585;23;20014;-71
2022/10/20 01:24:06;;;;;;;5.63;5.28;;;;;;;10.07;100.00;101241.50;6051946;23;20038;-73
2022/10/20 01:27:09;;;;;;;6.20;5.80;;;;;;;10.05;100.00;101236.31;6066624;23;20093;-75
2022/10/20 01:29:44;;;;;;;;;;;;;;;9.99;100.00;101239.19;6086337;23;20089;-70
2022/10/20 01:32:22;;;;;;;6.03;5.63;;;;;;;9.80;100.00;101205.00;6055847;23;19976;-71
2022/10/20 01:35:06;;;;;;;8.13;5.47;;;;;;;9.94;100.00;101239.41;6077973;23;20091;-71
2022/10/20 01:37:48;;;;;;;6.93;6.22;;;;;;;9.86;100.00;101244.09;6056040;23;20372;-70
2022/10/20 01:40:36;;;;;;;6.45;5.95;;;;;;;9.37;100.00;101156.97;6082005;23;20097;-70
2022/10/20 01:43:07;;;;;;;5.65;5.25;;;;;;;9.92;100.00;101240.34;6073985;23;20064;-70
2022/10/20 01:45:38;;;;;;;6.97;5.88;;;;;;;9.95;100.00;101222.72;6062020;23;20803;-72
2022/10/20 01:48:06;;;;;;;5.45;5.05;;;;;;;9.94;100.00;101212.31;6073585;23;20554;-72
2022/10/20 01:50:34;;;;;;;6.75;6.00;;;;;;;9.95;100.00;101209.63;6053357;23;20033;-73
2022/10/20 01:53:01;;;;;;;5.20;4.90;;;;;;;10.07;100.00;101207.41;6082684;23;20052;-72
2022/10/20 01:55:28;;;;;;;6.47;5.97;;;;;;;10.03;100.00;101204.06;6070369;23;20018;-70
2022/10/20 01:58:34;;;;;;;6.07;5.57;;;;;;;10.07;100.00;101189.06;6071119;23;20010;-72
2022/10/20 02:01:31;;;;;;;4.90;4.68;;;;;;;10.06;100.00;101192.59;6050681;23;20026;-72
2022/10/20 02:04:01;;;;;;;5.15;4.85;;;;;;;10.05;100.00;101183.03;6056009;23;20028;-70
2022/10/20 02:06:53;;;;;;;6.07;5.57;;;;;;;10.11;100.00;101183.63;6045185;23;20027;-73
2022/10/20 02:09:30;;;;;;;11.35;6.25;;;;;;;10.05;100.00;101188.28;6078406;23;20014;-71
2022/10/20 02:12:28;;;;;;;5.82;5.43;;;;;;;9.14;100.00;101051.38;6049088;23;20528;-70
2022/10/20 02:14:56;;;;;;;6.32;5.82;;;;;;;9.70;100.00;101146.00;6054229;23;20018;-70
2022/10/20 02:17:22;;;;;;;9.60;5.53;;;;;;;9.45;100.00;101099.88;6081955;23;20645;-72
2022/10/20 02:19:50;;;;;;;6.15;5.55;;;;;;;9.36;100.00;101074.91;6050534;23;20119;-70
2022/10/20 02:22:18;;;;;;;5.97;5.50;;;;;;;9.71;100.00;101132.00;6049217;23;20084;-73
2022/10/20 02:24:45;;;;;;;6.93;5.38;;;;;;;9.49;100.00;101098.81;5913862;23;20431;-72
2022/10/20 02:27:15;;;;;;;5.97;5.57;;;;;;;9.77;100.00;101140.47;6057578;23;20084;-73
2022/10/20 02:29:47;;;;;;;5.43;5.10;;;;;;;9.84;100.00;101155.94;6074589;23;20672;-72
2022/10/20 02:32:15;;;;;;;6.20;5.70;;;;;;;9.65;100.00;101121.78;6052304;23;20034;-73
2022/10/20 02:34:42;;;;;;;5.88;5.32;;;;;;;9.72;100.00;101131.06;6052903;23;20314;-71
2022/10/20 02:37:08;;;;;;;5.90;5.50;;;;;;;9.74;100.00;101126.63;6080597;23;20084;-70
2022/10/20 02:39:35;;;;;;;5.78;5.35;;;;;;;9.89;100.00;101164.47;6051443;23;20027;-71
2022/10/20 02:42:01;;;;;;;5.93;5.53;;;;;;;9.79;100.00;101150.88;6074525;23;20034;-71
2022/10/20 02:44:28;;;;;;;6.28;5.78;;;;;;;9.76;100.00;101132.66;6068528;23;20446;-71
2022/10/20 02:46:54;;;;;;;5.82;5.43;;;;;;;9.55;100.00;101089.88;6074046;23;20450;-72
2022/10/20 02:49:21;;;;;;;6.57;5.97;;;;;;;9.56;100.00;101074.09;6065561;23;20103;-70
2022/10/20 02:51:47;;;;;;;6.43;5.82;;;;;;;9.73;100.00;101115.28;6075273;23;20383;-72
2022/10/20 02:54:14;;;;;;;7.93;5.43;;;;;;;9.79;100.00;101115.03;6056463;23;20036;-71
2022/10/20 02:56:40;;;;;;;5.85;5.38;;;;;;;9.82;100.00;101121.91;6082186;23;20503;-69
2022/10/20 02:59:11;;;;;;;7.07;6.45;;;;;;;9.91;100.00;101120.69;6072784;23;20015;-70
2022/10/20 03:01:38;;;;;;;5.45;5.15;;;;;;;9.85;100.00;101124.41;6077880;23;20056;-71
2022/10/20 03:04:04;;;;;;;6.13;5.50;;;;;;;9.62;100.00;101088.69;6029008;23;20076;-72
2022/10/20 03:06:31;;;;;;;5.60;5.28;;;;;;;9.81;100.00;101120.22;6046508;23;20029;-72
2022/10/20 03:08:57;;;;;;;5.55;5.13;;;;;;;8.53;100.00;100915.97;6058528;23;20063;-70
2022/10/20 03:11:24;;;;;;;5.55;5.05;;;;;;;9.78;100.00;101108.09;6076537;23;20185;-70
2022/10/20 03:13:50;;;;;;;5.93;5.43;;;;;;;9.86;100.00;101120.00;6047970;23;20720;-72
2022/10/20 03:16:16;;;;;;;5.57;5.18;;;;;;;9.71;100.00;101083.06;6080663;23;20038;-70
2022/10/20 03:18:43;;;;;;;5.72;5.22;;;;;;;9.55;100.00;101061.88;6022458;23;20491;-72
2022/10/20 03:21:09;;;;;;;6.70;6.10;;;;;;;9.81;100.00;101108.91;6046988;23;20075;-72
2022/10/20 03:23:36;;;;;;;6.63;6.05;;;;;;;9.93;100.00;101108.38;6050074;23;20515;-74
2022/10/20 03:26:07;;;;;;;6.85;6.38;;;;;;;9.84;100.00;101106.13;6058968;23;20022;-71
2022/10/20 03:28:33;;;;;;;5.93;5.45;;;;;;;9.88;100.00;101100.72;6076590;23;20025;-73
2022/10/20 03:31:00;;;;;;;6.88;5.45;;;;;;;9.93;100.00;101095.25;6081551;23;20026;-72
2022/10/20 03:33:26;;;;;;;5.75;5.35;;;;;;;9.92;100.00;101102.28;6079427;23;20865;-72
2022/10/20 03:35:52;;;;;;;13.32;5.90;;;;;;;9.93;100.00;101090.84;6083342;23;20022;-72
2022/10/20 03:38:19;;;;;;;5.75;5.30;;;;;;;9.89;100.00;101089.28;6045554;23;20034;-75
2022/10/20 03:40:45;;;;;;;6.18;5.78;;;;;;;9.74;100.00;101064.59;6083468;23;20083;-71
2022/10/20 03:43:14;;;;;;;5.30;5.00;;;;;;;9.88;100.00;101090.22;6071080;23;20079;-71
2022/10/20 03:45:41;;;;;;;6.10;5.60;;;;;;;9.51;100.00;101014.94;6079186;23;20034;-71
2022/10/20 03:48:09;;;;;;;6.28;5.82;;;;;;;9.96;100.00;101074.13;6074393;23;20021;-72
2022/10/20 03:50:40;;;;;;;5.80;5.35;;;;;;;9.95;100.00;101075.06;6088036;23;20040;-72
2022/10/20 03:53:14;;;;;;;5.47;5.10;;;;;;;9.99;100.00;101066.16;6058881;23;20018;-69
2022/10/20 03:55:40;;;;;;;6.50;6.00;;;;;;;9.62;100.00;101014.47;6079071;23;20037;-73
2022/10/20 03:58:07;;;;;;;6.28;5.78;;;;;;;9.68;100.00;101008.94;6075174;23;20010;-70
2022/10/20 04:00:33;;;;;;;8.25;4.93;;;;;;;10.04;100.00;101040.56;6048031;23;20026;-73
2022/10/20 04:02:59;;;;;;;6.75;6.25;;;;;;;9.74;100.00;101001.69;6055784;23;20010;-71
2022/10/20 04:05:26;;;;;;;7.30;5.40;;;;;;;9.78;100.00;101016.38;6058465;23;20092;-72
2022/10/20 04:07:52;;;;;;;7.40;5.90;;;;;;;9.57;100.00;100991.94;6053835;23;20026;-72
2022/10/20 04:10:19;;;;;;;5.85;5.43;;;;;;;10.06;100.00;101064.09;6055190;23;20349;-73
2022/10/20 04:12:45;;;;;;;6.93;5.70;;;;;;;9.94;100.00;101062.88;6078339;23;20154;-72
2022/10/20 04:15:11;;;;;;;6.78;6.25;;;;;;;9.97;100.00;101071.44;6053299;23;20003;-74
2022/10/20 04:17:38;;;;;;;8.38;5.90;;;;;;;9.64;100.00;101010.00;6075240;23;20037;-72
2022/10/20 04:20:10;;;;;;;5.65;5.25;;;;;;;9.94;100.00;101045.38;6077856;23;19999;-73
2022/10/20 04:22:37;;;;;;;5.90;5.25;;;;;;;10.02;100.00;101045.03;6079185;23;20013;-73
2022/10/20 04:25:04;;;;;;;5.53;5.10;;;;;;;10.02;100.00;101046.81;6057350;23;20064;-71
2022/10/20 04:27:31;;;;;;;8.27;5.28;;;;;;;9.89;100.00;101001.94;6084001;23;20097;-71
2022/10/20 04:29:57;;;;;;;5.82;5.43;;;;;;;9.77;100.00;100987.59;6080307;23;20024;-71
2022/10/20 04:32:24;;;;;;;6.20;5.70;;;;;;;10.06;100.00;101014.28;6056753;23;20096;-74
2022/10/20 04:34:50;;;;;;;5.50;5.10;;;;;;;10.05;100.00;100999.47;6083724;23;20092;-72
2022/10/20 04:37:17;;;;;;;5.97;5.57;;;;;;;10.12;100.00;101014.00;6075380;23;20014;-74
2022/10/20 04:39:43;;;;;;;7.25;5.38;;;;;;;10.12;100.00;101017.50;6053220;23;20092;-72
2022/10/20 04:42:09;;;;;;;5.88;5.38;;;;;;;10.05;100.00;101000.31;6082013;23;20006;-75
2022/10/20 04:44:36;;;;;;;6.32;5.78;;;;;;;10.11;100.00;101026.25;6079287;23;20530;-72
2022/10/20 04:47:02;;;;;;;6.25;5.57;;;;;;;10.15;100.00;101011.25;6061287;23;20658;-72
2022/10/20 04:49:28;;;;;;;6.22;5.70;;;;;;;9.21;100.00;100837.22;6078583;23;20101;-73
2022/10/20 04:51:55;;;;;;;6.32;5.93;;;;;;;9.56;100.00;100882.81;6079868;23;20026;-72
2022/10/20 04:54:26;;;;;;;5.70;5.40;;;;;;;10.21;100.00;100997.84;6053603;23;20018;-75
2022/10/20 04:56:53;;;;;;;5.78;5.47;;;;;;;10.07;100.00;100981.91;6077861;23;20022;-71
2022/10/20 04:59:19;;;;;;;7.35;5.53;;;;;;;10.04;100.00;100968.91;6048786;23;20018;-71
2022/10/20 05:01:45;;;;;;;5.88;5.43;;;;;;;9.70;100.00;100904.91;6047105;23;20761;-71
2022/10/20 05:04:19;;;;;;;10.85;4.97;;;;;;;10.13;100.00;100987.72;6056389;23;20014;-71
2022/10/20 05:06:47;;;;;;;7.88;6.05;;;;;;;10.20;100.00;100993.50;6081958;23;20109;-70
2022/10/20 05:09:15;;;;;;;5.05;4.70;;;;;;;9.78;100.00;100913.28;6070663;23;20045;-71
2022/10/20 05:11:42;;;;;;;5.25;4.80;;;;;;;9.90;100.00;100922.34;6075930;23;20032;-71
2022/10/20 05:14:08;;;;;;;5.72;5.32;;;;;;;10.23;100.00;100967.16;6052028;23;20018;-71
2022/10/20 05:16:34;;;;;;;6.30;5.53;;;;;;;10.19;100.00;100965.59;6083524;23;20187;-73
2022/10/20 05:19:01;;;;;;;5.72;5.25;;;;;;;10.08;100.00;100947.75;6073166;23;20017;-71
2022/10/20 05:21:29;;;;;;;6.10;5.70;;;;;;;9.91;100.00;100934.56;6074895;23;20025;-72
2022/10/20 05:24:00;;;;;;;15.07;5.40;;;;;;;10.05;100.00;100953.13;6085070;23;20082;-71
2022/10/20 05:26:33;;;;;;;6.05;5.53;;;;;;;10.09;100.00;100943.34;6059882;23;20408;-72
2022/10/20 05:29:00;;;;;;;7.68;5.43;;;;;;;10.17;100.00;100949.09;6081961;23;20021;-74
2022/10/20 05:31:27;;;;;;;5.97;5.57;;;;;;;10.16;100.00;100939.50;6084917;23;20027;-72
2022/10/20 05:33:55;;;;;;;4.93;4.60;;;;;;;9.80;100.00;100885.22;6062856;23;20027;-70
2022/10/20 05:36:24;;;;;;;5.70;5.28;;;;;;;10.22;100.00;100939.22;6050973;23;20096;-75
2022/10/20 05:38:53;;;;;;;5.18;4.78;;;;;;;10.27;100.00;100942.47;6051774;23;20098;-70
2022/10/20 05:41:25;;;;;;;5.55;5.07;;;;;;;10.28;100.00;100938.91;6077869;23;20017;-72
2022/10/20 05:43:56;;;;;;;5.45;5.07;;;;;;;10.31;100.00;100937.97;6073818;23;20261;-72
2022/10/20 05:46:25;;;;;;;5.80;5.30;;;;;;;10.31;100.00;100938.81;6049957;23;20021;-72
2022/10/20 05:48:59;;;;;;;5.00;4.70;;;;;;;10.30;100.00;100942.38;6049933;23;20056;-70
2022/10/20 05:51:29;;;;;;;5.35;4.80;;;;;;;10.00;100.00;100881.69;6069155;23;20083;-69
2022/10/20 05:53:57;;;;;;;5.43;5.13;;;;;;;9.82;100.00;100841.44;6076477;23;20088;-71
2022/10/20 05:56:25;;;;;;;5.00;4.70;;;;;;;10.38;100.00;100923.63;6053988;23;20034;-72
2022/10/20 05:58:52;;;;;;;6.82;5.88;;;;;;;10.29;100.00;100917.03;6044772;23;20027;-72
2022/10/20 06:01:22;;;;;;;5.95;5.13;;;;;;;10.39;100.00;100930.59;6080943;23;20076;-74
2022/10/20 06:03:57;;;;;;;6.03;5.50;;;;;;;10.46;100.00;100931.16;6029568;23;20054;-74
2022/10/20 06:06:28;;;;;;;5.68;5.22;;;;;;;10.40;100.00;100926.19;6056202;23;20019;-72
2022/10/20 06:08:57;;;;;;;5.85;5.25;;;;;;;10.45;100.00;100924.22;6092686;23;20030;-70
2022/10/20 06:11:25;;;;;;;6.38;5.75;;;;;;;10.39;100.00;100927.97;6052861;23;20550;-72
2022/10/20 06:13:52;;;;;;;6.28;4.90;;;;;;;10.35;100.00;100916.75;6051566;23;20089;-70
2022/10/20 06:16:21;;;;;;;5.93;5.43;;;;;;;10.43;100.00;100920.81;6079699;23;20666;-71
2022/10/20 06:18:48;;;;;;;5.90;5.50;;;;;;;10.19;100.00;100897.41;6077267;23;20336;-71
2022/10/20 06:21:20;;;;;;;6.22;5.82;;;;;;;10.54;100.00;100944.75;6073775;23;20018;-74
2022/10/20 06:23:46;;;;;;;5.03;4.72;;;;;;;10.28;100.00;100907.44;6051638;23;20412;-74
2022/10/20 06:26:18;;;;;;;5.82;5.32;;;;;;;10.09;100.00;100872.53;6072312;23;20069;-73
2022/10/20 06:28:47;;;;;;;5.93;5.50;;;;;;;10.55;100.00;100964.81;6060733;23;20030;-74
2022/10/20 06:31:19;;;;;;;7.43;5.03;;;;;;;10.56;100.00;100958.63;6046438;23;20015;-74
2022/10/20 06:33:47;;;;;;;5.90;5.40;;;;;;;10.31;100.00;100899.47;6051270;23;20329;-73
2022/10/20 06:36:14;;;;;;;5.57;5.10;;;;;;;10.64;100.00;100959.13;6049159;23;20073;-74
2022/10/20 06:38:41;;;;;;;5.47;5.07;;;;;;;10.69;100.00;100959.75;6083777;23;20025;-73
2022/10/20 06:41:13;;;;;;;6.35;5.85;;;;;;;10.23;100.00;100891.09;6048746;23;20015;-74
2022/10/20 06:43:39;;;;;;;5.45;5.13;;;;;;;10.75;100.00;100948.13;6048610;23;20026;-74
2022/10/20 06:46:10;;;;;;;5.88;5.35;;;;;;;10.76;100.00;100960.31;6045953;23;20022;-76
2022/10/20 06:48:36;;;;;;;5.93;5.43;;;;;;;10.72;100.00;100945.63;6065885;23;20038;-74
2022/10/20 06:51:09;;;;;;;6.18;5.68;;;;;;;10.83;100.00;100963.50;6080532;23;20036;-73
2022/10/20 06:53:36;;;;;;;6.55;6.05;;;;;;;10.95;100.00;100950.59;6073394;23;20034;-75
2022/10/20 06:56:12;;;;;;;6.50;5.78;;;;;;;11.01;100.00;100943.34;6058999;23;20084;-75
2022/10/20 06:58:40;;;;;;;7.87;6.50;;;;;;;11.04;100.00;100940.56;6079749;23;20010;-73
2022/10/20 07:01:15;;;;;;;6.28;5.47;;;;;;;10.70;100.00;100906.31;6052733;23;20014;-75
2022/10/20 07:03:43;;;;;;;6.05;5.63;;;;;;;11.02;100.00;100951.13;6075550;23;20053;-73
2022/10/20 07:06:16;;;;;;;6.20;5.70;;;;;;;10.87;100.00;100936.16;6054222;23;20540;-74
2022/10/20 07:08:42;;;;;;;6.47;5.80;;;;;;;10.65;100.00;100902.25;6074811;23;20092;-74
2022/10/20 07:11:15;;;;;;;6.30;5.80;;;;;;;11.09;100.00;100970.94;6049049;23;20011;-75
2022/10/20 07:13:42;;;;;;;;;;;;;;;11.15;100.00;100960.09;6041361;23;20026;-74
2022/10/20 07:16:12;;;;;;;6.03;5.32;;;;;;;10.94;100.00;100933.16;6072896;23;19912;-73
2022/10/20 07:18:38;;;;;;;7.38;6.78;;;;;;;10.79;100.00;100899.78;6047690;23;20038;-74
2022/10/20 07:21:08;;;;;;;10.40;6.03;;;;;;;11.23;100.00;100964.13;6077012;23;20344;-74
2022/10/20 07:23:35;;;;;;;7.63;6.95;;;;;;;10.75;100.00;100885.13;6048499;23;20038;-73
2022/10/20 07:26:01;;;;;;;6.13;5.72;;;;;;;11.27;100.00;100956.03;6079633;23;20010;-74
2022/10/20 07:28:28;;;;;;;5.80;5.40;;;;;;;10.86;100.00;100892.44;6054407;23;20091;-74
2022/10/20 07:30:55;;;;;;;6.32;5.88;;;;;;;11.34;100.00;100961.81;6058799;23;20511;-74
2022/10/20 07:33:24;;;;;;;6.88;6.18;;;;;;;11.32;100.00;100932.97;6038561;23;20585;-75
2022/10/20 07:35:50;;;;;;;6.18;5.75;;;;;;;11.36;100.00;100946.81;6046622;23;20022;-75
2022/10/20 07:38:17;;;;;;;6.93;6.43;;;;;;;11.05;100.00;100895.00;6065329;23;20045;-73
2022/10/20 07:40:43;;;;;;;7.18;6.60;;;;;;;11.34;100.00;100932.91;6022868;23;20026;-75
2022/10/20 07:43:09;;;;;;;10.38;6.57;;;;;;;11.25;100.00;100902.69;6067805;23;20463;-75
2022/10/20 07:45:36;;;;;;;6.47;5.97;;;;;;;11.61;100.00;100937.66;6070736;23;20024;-72
2022/10/20 07:48:03;;;;;;;6.78;6.28;;;;;;;11.67;100.00;100945.22;6065228;23;20800;-74
2022/10/20 07:50:29;;;;;;;6.78;6.20;;;;;;;11.70;100.00;100943.25;6081383;23;20068;-75
2022/10/20 07:52:55;;;;;;;6.95;6.25;;;;;;;11.39;100.00;100891.47;6050047;23;20019;-74
2022/10/20 07:55:22;;;;;;;6.72;6.32;;;;;;;11.46;100.00;100892.00;6076068;23;20326;-74
2022/10/20 07:58:04;;;;;;;7.40;6.47;;;;;;;11.57;100.00;100913.31;6073547;23;20068;-74
2022/10/20 08:00:30;;;;;;;6.75;6.15;;;;;;;11.73;100.00;100934.38;6049890;23;20084;-73
2022/10/20 08:02:57;;;;;;;6.53;6.03;;;;;;;11.89;100.00;100939.72;6052158;23;20096;-73
2022/10/20 08:05:23;;;;;;;6.30;5.82;;;;;;;11.95;100.00;100949.91;6045531;23;20017;-74
2022/10/20 08:07:50;;;;;;;9.35;5.90;;;;;;;11.95;100.00;100949.91;6083072;23;20988;-74
2022/10/20 08:10:16;;;;;;;6.47;5.97;;;;;;;11.94;100.00;100929.78;6054885;23;20093;-74
2022/10/20 08:12:43;;;;;;;6.75;6.15;;;;;;;12.05;100.00;100948.47;6066699;23;20103;-73
2022/10/20 08:15:09;;;;;;;6.97;5.90;;;;;;;11.81;100.00;100899.75;6047226;23;20081;-73
2022/10/20 08:17:35;;;;;;;6.80;6.20;;;;;;;12.10;100.00;100935.88;6077689;23;20424;-73
2022/10/20 08:20:03;;;;;;;6.97;6.32;;;;;;;12.26;100.00;100948.22;6052230;23;20019;-75
2022/10/20 08:22:52;;;;;;;7.18;6.55;;;;;;;12.03;100.00;100907.38;6077188;23;20056;-74
2022/10/20 08:25:18;;;;;;;6.80;6.30;;;;;;;12.01;100.00;100898.72;6076467;23;20485;-75
2022/10/20 08:27:45;;;;;;;7.50;6.80;;;;;;;12.31;100.00;100949.66;6080261;23;20033;-74
2022/10/20 08:30:11;;;;;;;6.00;5.60;;;;;;;11.23;100.00;100786.34;6028119;23;20015;-74
2022/10/20 08:32:53;;;;;;;6.45;5.95;;;;;;;12.30;100.00;100955.84;6070855;23;20078;-75
2022/10/20 08:35:20;;;;;;;6.50;5.95;;;;;;;12.13;100.00;100925.22;6073940;23;20617;-74
2022/10/20 08:37:47;;;;;;;6.63;6.03;;;;;;;12.08;100.00;100913.22;6072240;23;20014;-75
2022/10/20 08:40:24;;;;;;;6.90;6.32;;;;;;;12.46;100.00;100947.94;6048966;23;20038;-74
2022/10/20 08:42:51;;;;;;;6.35;5.85;;;;;;;12.05;100.00;100866.06;6074617;23;20497;-74
2022/10/20 08:45:20;;;;;;;6.90;6.30;;;;;;;12.54;100.00;100936.97;6044087;23;20138;-74
2022/10/20 08:47:49;;;;;;;6.10;5.65;;;;;;;12.35;100.00;100901.19;6044098;23;20478;-75
2022/10/20 08:50:17;;;;;;;10.48;7.22;;;;;;;12.63;100.00;100947.00;6057902;23;20030;-75
2022/10/20 08:52:46;;;;;;;6.65;6.10;;;;;;;12.67;100.00;100966.09;6050215;23;20034;-73
2022/10/20 08:55:31;;;;;;;9.88;6.95;;;;;;;12.72;100.00;100948.25;6077247;23;20095;-74
2022/10/20 08:58:10;;;;;;;6.25;5.75;;;;;;;11.84;100.00;100820.72;6016609;23;20022;-73
2022/10/20 09:00:38;;;;;;;8.45;6.63;;;;;;;12.77;100.00;100954.97;6070569;23;20068;-74
2022/10/20 09:03:16;;;;;;;8.75;6.22;;;;;;;12.70;100.00;100952.75;6053313;23;20014;-74
2022/10/20 09:05:48;;;;;;;8.43;7.57;;;;;;;12.75;100.00;100946.31;6068314;23;20022;-74
2022/10/20 09:08:14;;;;;;;7.15;6.57;;;;;;;12.53;100.00;100911.59;6043581;23;20351;-74
2022/10/20 09:10:46;;;;;;;10.15;7.07;;;;;;;12.77;100.00;100928.63;6076524;23;20080;-74
2022/10/20 09:13:19;;;;;;;7.35;6.63;;;;;;;12.85;100.00;100925.56;6081179;23;20062;-74
2022/10/20 09:15:48;;;;;;;6.57;5.97;;;;;;;12.70;100.00;100908.00;6047616;23;20697;-74
2022/10/20 09:18:15;;;;;;;9.27;6.47;;;;;;;12.82;100.00;100922.25;6075834;23;20084;-74
2022/10/20 09:20:54;;;;;;;7.15;6.45;;;;;;;13.00;100.00;100908.00;6053989;23;20498;-74
2022/10/20 09:23:26;;;;;;;7.22;6.63;;;;;;;12.77;100.00;100833.81;6051299;23;20025;-74
2022/10/20 09:26:18;;;;;;;7.75;7.10;;;;;;;13.33;100.00;100912.22;6043461;23;20034;-77
2022/10/20 09:29:14;;;;;;;6.32;5.82;;;;;;;13.46;100.00;100886.81;6067306;23;20089;-75
2022/10/20 09:31:53;;;;;;;11.07;7.22;;;;;;;12.87;100.00;100833.25;6047284;23;20030;-76
2022/10/20 09:34:33;;;;;;;11.68;7.40;;;;;;;13.43;100.00;100915.13;6041895;23;20954;-73
2022/10/20 09:37:05;;;;;;;11.48;7.28;;;;;;;13.46;100.00;100897.34;6066882;23;20014;-73
2022/10/20 09:39:50;;;;;;;7.43;6.72;;;;;;;13.27;100.00;100896.72;6043386;23;20034;-73
2022/10/20 09:42:39;;;;;;;7.63;6.93;;;;;;;13.22;100.00;100899.66;6078664;23;20025;-74
2022/10/20 09:45:16;;;;;;;6.40;5.90;;;;;;;12.81;100.00;100855.56;6080334;23;20018;-77
2022/10/20 09:47:45;;;;;;;7.07;6.47;;;;;;;13.08;100.00;100897.84;6070639;23;20040;-73
2022/10/20 09:50:26;;;;;;;6.68;6.18;;;;;;;12.89;100.00;100873.50;6074132;23;20125;-74
2022/10/20 09:52:53;;;;;;;6.47;5.97;;;;;;;12.86;100.00;100886.88;6053410;23;20034;-74
2022/10/20 09:55:24;;;;;;;7.82;6.63;;;;;;;13.13;100.00;100943.22;6046254;23;20517;-75
2022/10/20 09:57:52;;;;;;;9.50;6.20;;;;;;;12.72;100.00;100874.53;6070106;23;20014;-74
2022/10/20 10:00:25;;;;;;;9.45;6.68;;;;;;;13.03;100.00;100931.53;6056868;23;20017;-73
2022/10/20 10:03:20;;;;;;;6.95;6.25;;;;;;;13.06;100.00;100941.03;6078439;23;20329;-74
2022/10/20 10:05:58;;;;;;;6.40;5.90;;;;;;;13.01;100.00;100936.06;6076046;23;20014;-74
2022/10/20 10:08:40;;;;;;;7.82;7.10;;;;;;;12.57;100.00;100850.78;6047859;23;20056;-75
2022/10/20 10:11:16;;;;;;;6.82;6.32;;;;;;;12.80;100.00;100888.09;6073765;23;20033;-74
2022/10/20 10:13:46;;;;;;;7.28;6.25;;;;;;;12.92;100.00;100910.22;6071271;23;20034;-74
2022/10/20 10:16:18;;;;;;;6.97;6.40;;;;;;;13.15;100.00;100945.78;6074735;23;20685;-74
2022/10/20 10:18:54;;;;;;;7.00;6.30;;;;;;;12.93;100.00;100893.50;6047597;23;20534;-75
2022/10/20 10:21:21;;;;;;;7.13;6.45;;;;;;;13.36;100.00;100939.25;6078165;23;20026;-74
2022/10/20 10:24:00;;;;;;;7.45;6.75;;;;;;;13.54;100.00;100954.91;6069181;23;20492;-74
2022/10/20 10:26:46;;;;;;;6.75;6.30;;;;;;;13.26;100.00;100898.53;6015899;23;20077;-73
2022/10/20 10:29:17;;;;;;;8.93;7.50;;;;;;;13.70;100.00;100941.63;6066841;23;20026;-76
2022/10/20 10:31:56;;;;;;;8.13;6.53;;;;;;;13.63;100.00;100912.16;6058733;23;20037;-73
2022/10/20 10:34:39;;;;;;;7.47;6.75;;;;;;;13.80;100.00;100934.00;6087324;23;20034;-74
2022/10/20 10:37:09;;;;;;;7.80;7.00;;;;;;;13.64;100.00;100889.25;6045668;23;20025;-73
2022/10/20 10:39:36;;;;;;;8.18;7.30;;;;;;;13.83;100.00;100925.88;6075191;23;20038;-74
2022/10/20 10:42:44;;;;;;;9.15;7.53;;;;;;;13.72;100.00;100901.03;6075086;23;20014;-73
2022/10/20 10:45:18;;;;;;;13.27;7.57;;;;;;;13.71;100.00;100914.28;6075182;23;20115;-73
2022/10/20 10:47:54;;;;;;;7.75;7.03;;;;;;;13.45;100.00;100921.16;6044417;23;20076;-74
2022/10/20 10:50:26;;;;;;;12.93;6.63;;;;;;;13.36;100.00;100904.97;6082292;23;20034;-72
2022/10/20 10:53:07;;;;;;;7.07;6.47;;;;;;;13.24;100.00;100894.31;6077713;23;20037;-73
2022/10/20 10:55:46;;;;;;;9.07;7.25;;;;;;;12.78;100.00;100826.75;6054524;23;20368;-73
2022/10/20 10:58:28;;;;;;;8.07;7.28;;;;;;;13.00;100.00;100889.56;6041158;23;20076;-73
2022/10/20 11:01:08;;;;;;;8.00;7.20;;;;;;;12.96;100.00;100866.97;6023850;23;20118;-73
2022/10/20 11:03:50;;;;;;;7.50;6.80;;;;;;;13.00;100.00;100899.25;6069899;23;20478;-74
2022/10/20 11:06:24;;;;;;;6.95;6.35;;;;;;;12.54;100.00;100840.41;6065492;23;20056;-74
2022/10/20 11:08:56;;;;;;;6.70;6.10;;;;;;;12.48;100.00;100834.66;6022017;23;20018;-73
2022/10/20 11:11:57;;;;;;;7.72;6.93;;;;;;;12.83;100.00;100897.59;6048070;23;20088;-74
2022/10/20 11:14:43;;;;;;;7.53;6.88;;;;;;;12.77;100.00;100910.19;6021705;23;20530;-74
2022/10/20 11:17:28;;;;;;;6.72;6.13;;;;;;;12.46;100.00;100883.94;6047038;23;20010;-73
2022/10/20 11:20:10;;;;;;;7.78;7.07;;;;;;;12.42;100.00;100890.31;6066169;23;20117;-74
2022/10/20 11:22:49;;;;;;;7.72;6.93;;;;;;;12.52;100.00;100915.16;6040527;23;20025;-73
2022/10/20 11:25:24;;;;;;;8.43;7.55;;;;;;;12.45;100.00;100914.66;6072324;23;20026;-74
2022/10/20 11:27:51;;;;;;;10.52;7.00;;;;;;;12.27;100.00;100892.88;6071076;23;20032;-74
2022/10/20 11:30:20;;;;;;;7.47;6.85;;;;;;;12.38;100.00;100901.00;6074939;23;20022;-74
2022/10/20 11:32:58;;;;;;;8.50;7.28;;;;;;;12.38;100.00;100911.53;6075210;23;20022;-74
2022/10/20 11:35:30;;;;;;;6.70;6.20;;;;;;;12.38;100.00;100911.53;6051397;23;20027;-74
2022/10/20 11:38:15;;;;;;;9.73;7.57;;;;;;;12.36;100.00;100907.28;6048068;23;20015;-74